createdAt,value
2022-12-04T00:03:13.898Z,0.05
2022-12-04T00:08:15.308Z,0.07
2022-12-04T00:13:16.571Z,0.08
2022-12-04T00:18:17.600Z,0.06
2022-12-04T00:23:18.787Z,0.04
2022-12-04T00:28:19.821Z,0.02
2022-12-04T00:33:21.892Z,0.01
2022-12-04T00:38:22.986Z,0.01
2022-12-04T00:43:24.015Z,0.03
2022-12-04T00:48:25.112Z,0.04
2022-12-04T00:53:26.123Z,0.05
2022-12-04T00:58:27.204Z,0.05
2022-12-04T01:03:28.648Z,0.05
2022-12-04T01:08:31.072Z,0.05
2022-12-04T01:13:32.200Z,0.05
2022-12-04T01:18:33.258Z,0.07
2022-12-04T01:23:35.445Z,0.09
2022-12-04T01:28:36.966Z,0.11
2022-12-04T01:33:39.285Z,0.14
2022-12-04T01:38:40.997Z,0.16
2022-12-04T01:43:43.566Z,0.18
2022-12-04T01:48:53.767Z,0.20
2022-12-04T01:54:00.699Z,0.20
2022-12-04T01:59:02.871Z,0.19
2022-12-04T02:04:05.540Z,0.19
2022-12-04T02:09:07.153Z,0.20
2022-12-04T02:14:24.874Z,0.20
2022-12-04T02:20:03.770Z,0.20
2022-12-04T02:25:28.923Z,0.22
2022-12-04T02:30:34.037Z,0.22
2022-12-04T02:35:56.773Z,0.24
2022-12-04T02:41:05.879Z,0.27
2022-12-04T02:46:15.823Z,0.28
2022-12-04T02:51:20.551Z,0.28
2022-12-04T02:56:31.847Z,0.29
2022-12-04T03:01:38.124Z,0.31
2022-12-04T03:06:43.831Z,0.35
2022-12-04T03:11:52.093Z,0.35
2022-12-04T03:17:01.169Z,0.33
2022-12-04T03:22:07.139Z,0.31
2022-12-04T03:27:36.403Z,0.30
2022-12-04T03:32:48.583Z,0.31
2022-12-04T03:37:59.932Z,0.33
2022-12-04T03:43:24.312Z,0.37
2022-12-04T03:48:40.139Z,0.44
2022-12-04T03:53:49.502Z,0.48
2022-12-04T03:58:59.626Z,0.46
2022-12-04T04:04:04.466Z,0.45
2022-12-04T04:09:12.770Z,0.45
2022-12-04T04:14:38.831Z,0.47
2022-12-04T04:20:02.668Z,0.51
2022-12-04T04:25:14.086Z,0.47
2022-12-04T04:30:15.214Z,0.41
2022-12-04T04:35:35.175Z,0.38
2022-12-04T04:40:47.436Z,0.33
2022-12-04T04:46:01.711Z,0.32
2022-12-04T04:51:04.790Z,0.34
2022-12-04T04:56:07.823Z,0.33
2022-12-04T05:01:18.814Z,0.30
2022-12-04T05:06:21.861Z,0.31
2022-12-04T05:11:22.995Z,0.33
2022-12-04T05:16:24.202Z,0.31
2022-12-04T05:21:25.398Z,0.27
2022-12-04T05:26:26.428Z,0.23
2022-12-04T05:31:27.520Z,0.22
2022-12-04T05:36:29.201Z,0.22
2022-12-04T05:41:30.258Z,0.22
2022-12-04T05:46:31.314Z,0.23
2022-12-04T05:51:32.517Z,0.22
2022-12-04T05:56:33.499Z,0.20
2022-12-04T06:01:34.691Z,0.20
2022-12-04T06:06:37.769Z,0.21
2022-12-04T06:11:40.848Z,0.24
2022-12-04T06:16:45.509Z,0.25
2022-12-04T06:21:50.226Z,0.28
2022-12-04T06:27:27.378Z,0.31
2022-12-04T06:32:21.879Z,0.34
2022-12-04T06:37:24.449Z,0.35
2022-12-04T06:42:25.842Z,0.36
2022-12-04T06:47:26.886Z,0.36
2022-12-04T06:52:27.868Z,0.36
2022-12-04T06:57:28.971Z,0.37
2022-12-04T07:02:30.099Z,0.37
2022-12-04T07:07:32.217Z,0.39
2022-12-04T07:12:33.337Z,0.41
2022-12-04T07:17:34.280Z,0.45
2022-12-04T07:22:35.372Z,0.47
2022-12-04T07:27:36.543Z,0.46
2022-12-04T07:32:38.065Z,0.47
2022-12-04T07:37:39.107Z,0.48
2022-12-04T07:42:40.271Z,0.50
2022-12-04T07:47:41.828Z,0.52
2022-12-04T07:52:43.161Z,0.55
2022-12-04T07:57:44.233Z,0.59
2022-12-04T08:02:45.502Z,0.62
2022-12-04T08:07:46.689Z,0.62
2022-12-04T08:12:47.792Z,0.64
2022-12-04T08:17:48.878Z,0.65
2022-12-04T08:22:50.113Z,0.69
2022-12-04T08:27:51.275Z,0.71
2022-12-04T08:32:52.240Z,0.70
2022-12-04T08:37:54.129Z,0.70
2022-12-04T08:42:55.228Z,0.72
2022-12-04T08:47:56.217Z,0.75
2022-12-04T08:52:57.394Z,0.78
2022-12-04T08:57:58.393Z,0.79
2022-12-04T09:02:59.455Z,0.79
2022-12-04T09:08:00.513Z,0.77
2022-12-04T09:13:02.234Z,0.78
2022-12-04T09:18:03.314Z,0.82
2022-12-04T09:23:05.594Z,0.86
2022-12-04T09:28:07.342Z,0.89
2022-12-04T09:33:09.911Z,0.91
2022-12-04T09:38:10.883Z,0.90
2022-12-04T09:43:28.169Z,0.90
2022-12-04T09:48:36.759Z,0.89
2022-12-04T09:53:46.612Z,0.92
2022-12-04T09:58:55.112Z,0.96
2022-12-04T10:04:00.052Z,0.97
2022-12-04T10:09:14.623Z,0.96
2022-12-04T10:14:19.027Z,0.93
2022-12-04T10:19:46.986Z,0.89
2022-12-04T10:24:54.477Z,0.85
2022-12-04T10:30:01.529Z,0.82
2022-12-04T10:35:18.591Z,0.84
2022-12-04T10:40:31.172Z,0.88
2022-12-04T10:45:32.756Z,0.89
2022-12-04T10:50:35.046Z,0.85
2022-12-04T10:55:37.565Z,0.85
2022-12-04T11:00:38.635Z,0.87
2022-12-04T11:05:44.494Z,0.91
2022-12-04T11:11:02.009Z,0.90
2022-12-04T11:16:05.577Z,0.90
2022-12-04T11:21:16.739Z,0.89
2022-12-04T11:26:39.313Z,0.89
2022-12-04T11:31:40.838Z,0.93
2022-12-04T11:36:42.487Z,0.97
2022-12-04T11:41:43.587Z,1.00
2022-12-04T11:46:53.821Z,1.01
2022-12-04T11:52:31.694Z,1.01
2022-12-04T11:57:52.685Z,1.03
2022-12-04T12:03:19.883Z,1.05
2022-12-04T12:08:45.791Z,1.06
2022-12-04T12:14:13.681Z,1.06
2022-12-04T12:19:43.775Z,1.07
2022-12-04T12:24:56.511Z,1.07
2022-12-04T12:30:23.302Z,1.07
2022-12-04T12:35:32.879Z,1.05
2022-12-04T12:40:48.395Z,1.03
2022-12-04T12:45:58.109Z,1.03
2022-12-04T12:56:42.224Z,1.05
2022-12-04T13:02:17.114Z,1.05
2022-12-04T13:07:44.921Z,1.04
2022-12-04T13:13:16.581Z,1.03
2022-12-04T13:18:59.459Z,1.04
2022-12-04T13:24:41.854Z,1.05
2022-12-04T13:29:51.900Z,1.05
2022-12-04T13:35:03.209Z,1.03
2022-12-04T13:40:42.026Z,1.03
2022-12-04T13:45:49.104Z,0.99
2022-12-04T13:51:20.292Z,0.95
2022-12-04T13:56:29.798Z,0.95
2022-12-04T14:01:40.152Z,0.95
2022-12-04T14:06:42.908Z,0.95
2022-12-04T14:11:47.682Z,0.95
2022-12-04T14:16:49.740Z,0.94
2022-12-04T14:21:50.937Z,0.96
2022-12-04T14:32:18.168Z,0.93
2022-12-04T14:37:41.205Z,0.93
2022-12-04T14:42:45.514Z,0.92
2022-12-04T14:48:24.444Z,0.89
2022-12-04T14:53:59.761Z,0.87
2022-12-04T14:59:11.541Z,0.85
2022-12-04T15:04:22.812Z,0.85
2022-12-04T15:09:43.946Z,0.86
2022-12-04T15:14:48.314Z,0.86
2022-12-04T15:19:50.582Z,0.86
2022-12-04T15:24:52.401Z,0.87
2022-12-04T15:29:56.888Z,0.88
2022-12-04T15:35:05.037Z,0.90
2022-12-04T15:40:08.118Z,0.90
2022-12-04T15:45:09.232Z,0.91
2022-12-04T15:50:20.642Z,0.92
2022-12-04T15:55:24.859Z,0.90
2022-12-04T16:00:36.292Z,0.88
2022-12-04T16:05:37.858Z,0.86
2022-12-04T16:10:39.933Z,0.84
2022-12-04T16:15:43.108Z,0.82
2022-12-04T16:20:44.319Z,0.81
2022-12-04T16:25:47.290Z,0.79
2022-12-04T16:30:54.338Z,0.78
2022-12-04T16:35:56.924Z,0.77
2022-12-04T16:40:58.071Z,0.74
2022-12-04T16:46:00.659Z,0.74
2022-12-04T16:51:01.860Z,0.74
2022-12-04T16:56:03.117Z,0.75
2022-12-04T17:01:12.385Z,0.76
2022-12-04T17:06:13.989Z,0.75
2022-12-04T17:11:17.015Z,0.73
2022-12-04T17:16:19.957Z,0.71
2022-12-04T17:21:21.288Z,0.69
2022-12-04T17:26:23.332Z,0.69
2022-12-04T17:31:25.919Z,0.69
2022-12-04T17:36:27.554Z,0.69
2022-12-04T17:41:28.807Z,0.71
2022-12-04T17:46:30.185Z,0.71
2022-12-04T17:51:31.457Z,0.72
2022-12-04T17:56:33.378Z,0.71
2022-12-04T18:01:34.631Z,0.69
2022-12-04T18:06:39.004Z,0.67
2022-12-04T18:11:43.992Z,0.67
2022-12-04T18:16:50.380Z,0.66
2022-12-04T18:21:53.564Z,0.64
2022-12-04T18:26:54.910Z,0.62
2022-12-04T18:31:56.049Z,0.63
2022-12-04T18:36:57.329Z,0.62
2022-12-04T18:41:58.311Z,0.59
2022-12-04T18:46:59.475Z,0.56
2022-12-04T18:52:01.054Z,0.56
2022-12-04T18:57:02.336Z,0.58
2022-12-04T19:02:03.522Z,0.58
2022-12-04T19:07:04.977Z,0.57
2022-12-04T19:12:06.189Z,0.57
2022-12-04T19:17:10.583Z,0.57
2022-12-04T19:22:12.472Z,0.58
2022-12-04T19:27:13.764Z,0.62
2022-12-04T19:32:15.492Z,0.62
2022-12-04T19:37:18.009Z,0.55
2022-12-04T19:42:19.104Z,0.56
2022-12-04T19:47:20.199Z,0.55
2022-12-04T19:52:21.276Z,0.53
2022-12-04T19:57:22.271Z,0.49
2022-12-04T20:02:23.478Z,0.46
2022-12-04T20:07:25.060Z,0.46
2022-12-04T20:12:26.265Z,0.48
2022-12-04T20:17:27.633Z,0.51
2022-12-04T20:22:32.149Z,0.47
2022-12-04T20:27:33.310Z,0.43
2022-12-04T20:32:34.460Z,0.44
2022-12-04T20:37:36.232Z,0.47
2022-12-04T20:42:37.291Z,0.51
2022-12-04T20:47:38.883Z,0.53
2022-12-04T20:52:41.354Z,0.46
2022-12-04T20:57:42.487Z,0.41
2022-12-04T21:02:43.700Z,0.38
2022-12-04T21:07:45.450Z,0.37
2022-12-04T21:13:06.353Z,0.35
2022-12-04T21:18:07.592Z,0.35
2022-12-04T21:23:08.579Z,0.35
2022-12-04T21:28:11.045Z,0.34
2022-12-04T21:33:12.210Z,0.31
2022-12-04T21:38:13.349Z,0.29
2022-12-04T21:43:15.348Z,0.27
2022-12-04T21:48:16.435Z,0.23
2022-12-04T21:53:17.798Z,0.21
2022-12-04T21:58:20.398Z,0.20
2022-12-04T22:03:21.686Z,0.19
2022-12-04T22:08:30.099Z,0.19
2022-12-04T22:13:31.590Z,0.18
2022-12-04T22:18:34.588Z,0.15
2022-12-04T22:23:36.475Z,0.13
2022-12-04T22:28:38.343Z,0.13
2022-12-04T22:33:41.129Z,0.13
2022-12-04T22:39:05.600Z,0.15
2022-12-04T22:44:05.290Z,0.17
2022-12-04T22:49:06.366Z,0.19
2022-12-04T22:54:11.918Z,0.22
2022-12-04T22:59:13.072Z,0.24
2022-12-04T23:04:17.362Z,0.23
2022-12-04T23:09:19.974Z,0.24
2022-12-04T23:14:21.801Z,0.26
2022-12-04T23:19:23.330Z,0.27
2022-12-04T23:24:26.286Z,0.28
2022-12-04T23:29:52.249Z,0.28
2022-12-04T23:34:48.470Z,0.28
2022-12-04T23:39:49.446Z,0.26
2022-12-04T23:44:50.587Z,0.25
2022-12-04T23:49:51.549Z,0.27
2022-12-04T23:54:52.644Z,0.29
2022-12-04T23:59:53.860Z,0.25
